createdAt,value
2018-12-12T00:01:46.379Z,1.50
2018-12-12T00:04:13.946Z,1.30
2018-12-12T00:06:41.864Z,1.30
2018-12-12T00:09:09.936Z,1.40
2018-12-12T00:11:37.519Z,1.40
2018-12-12T00:14:05.155Z,1.40
2018-12-12T00:16:32.747Z,1.30
2018-12-12T00:19:00.320Z,1.30
2018-12-12T00:21:27.907Z,1.40
2018-12-12T00:23:55.479Z,1.40
2018-12-12T00:26:23.067Z,1.30
2018-12-12T00:28:50.631Z,1.10
2018-12-12T00:31:18.231Z,1.10
2018-12-12T00:33:45.789Z,1.30
2018-12-12T00:36:13.376Z,1.10
2018-12-12T00:38:40.935Z,1.00
2018-12-12T00:41:08.543Z,1.10
2018-12-12T00:43:36.127Z,1.20
2018-12-12T00:46:03.684Z,1.20
2018-12-12T00:48:31.265Z,1.20
2018-12-12T00:50:58.822Z,1.10
2018-12-12T00:53:27.837Z,1.20
2018-12-12T00:55:55.396Z,1.20
2018-12-12T00:58:22.979Z,1.40
2018-12-12T01:00:50.551Z,1.30
2018-12-12T01:03:18.140Z,1.40
2018-12-12T01:05:45.694Z,1.60
2018-12-12T01:08:13.279Z,1.60
2018-12-12T01:10:40.835Z,1.60
2018-12-12T01:13:08.432Z,1.60
2018-12-12T01:15:35.990Z,1.70
2018-12-12T01:18:03.590Z,1.50
2018-12-12T01:20:31.178Z,1.50
2018-12-12T01:22:58.750Z,1.40
2018-12-12T01:25:26.335Z,1.50
2018-12-12T01:27:53.894Z,1.50
2018-12-12T01:30:21.479Z,1.50
2018-12-12T01:32:49.042Z,1.50
2018-12-12T01:35:16.638Z,1.60
2018-12-12T01:37:44.195Z,1.70
2018-12-12T01:40:11.879Z,1.70
2018-12-12T01:42:39.439Z,1.90
2018-12-12T01:45:07.150Z,1.60
2018-12-12T01:47:34.707Z,1.50
2018-12-12T01:50:02.410Z,1.70
2018-12-12T01:52:29.986Z,1.70
2018-12-12T01:54:57.587Z,1.60
2018-12-12T01:57:25.192Z,1.50
2018-12-12T01:59:52.779Z,1.60
2018-12-12T02:02:20.367Z,1.50
2018-12-12T02:04:48.106Z,1.50
2018-12-12T02:07:15.790Z,1.40
2018-12-12T02:09:43.346Z,1.50
2018-12-12T02:12:10.927Z,1.40
2018-12-12T02:14:38.506Z,1.40
2018-12-12T02:17:06.107Z,1.40
2018-12-12T02:19:33.671Z,1.60
2018-12-12T02:22:01.254Z,1.60
2018-12-12T02:24:28.815Z,1.40
2018-12-12T02:26:56.406Z,1.40
2018-12-12T02:29:23.962Z,1.30
2018-12-12T02:31:51.588Z,1.50
2018-12-12T02:34:19.248Z,1.50
2018-12-12T02:36:46.852Z,1.50
2018-12-12T02:39:14.423Z,1.40
2018-12-12T02:41:42.008Z,1.30
2018-12-12T02:44:09.560Z,1.20
2018-12-12T02:46:37.121Z,1.30
2018-12-12T02:49:04.722Z,1.30
2018-12-12T02:51:32.283Z,1.30
2018-12-12T02:53:59.879Z,1.40
2018-12-12T02:56:27.435Z,1.20
2018-12-12T02:58:55.035Z,1.30
2018-12-12T03:01:22.604Z,1.30
2018-12-12T03:03:50.191Z,1.40
2018-12-12T03:06:17.755Z,1.30
2018-12-12T03:08:45.343Z,1.30
2018-12-12T03:11:14.924Z,1.30
2018-12-12T03:13:42.593Z,1.30
2018-12-12T03:16:10.175Z,1.40
2018-12-12T03:18:37.767Z,1.30
2018-12-12T03:21:05.327Z,1.30
2018-12-12T03:23:32.935Z,1.30
2018-12-12T03:26:00.498Z,1.20
2018-12-12T03:28:28.111Z,1.30
2018-12-12T03:30:55.804Z,1.30
2018-12-12T03:33:23.375Z,1.30
2018-12-12T03:35:50.967Z,1.40
2018-12-12T03:38:18.526Z,1.30
2018-12-12T03:40:46.462Z,1.30
2018-12-12T03:43:14.018Z,1.40
2018-12-12T03:45:41.601Z,1.40
2018-12-12T03:48:09.159Z,1.30
2018-12-12T03:50:36.744Z,1.40
2018-12-12T03:53:04.419Z,1.40
2018-12-12T03:55:32.001Z,1.40
2018-12-12T03:57:59.569Z,1.50
2018-12-12T04:00:27.171Z,1.30
2018-12-12T04:02:54.748Z,1.20
2018-12-12T04:05:22.330Z,1.30
2018-12-12T04:07:49.893Z,1.40
2018-12-12T04:10:17.498Z,1.40
2018-12-12T04:12:45.073Z,1.30
2018-12-12T04:15:12.959Z,1.30
2018-12-12T04:17:40.544Z,1.30
2018-12-12T04:20:08.409Z,1.30
2018-12-12T04:22:36.310Z,1.40
2018-12-12T04:25:05.311Z,1.50
2018-12-12T04:27:32.927Z,1.60
2018-12-12T04:30:00.536Z,1.80
2018-12-12T04:32:28.131Z,1.60
2018-12-12T04:34:55.700Z,1.40
2018-12-12T04:37:23.287Z,1.30
2018-12-12T04:39:50.842Z,1.40
2018-12-12T04:42:18.436Z,1.40
2018-12-12T04:44:46.021Z,1.40
2018-12-12T04:47:13.602Z,1.30
2018-12-12T04:49:41.169Z,1.30
2018-12-12T04:52:08.766Z,1.30
2018-12-12T04:54:36.338Z,1.30
2018-12-12T04:57:03.927Z,1.30
2018-12-12T04:59:31.627Z,1.30
2018-12-12T05:01:59.191Z,1.40
2018-12-12T05:04:26.795Z,1.40
2018-12-12T05:06:54.359Z,1.40
2018-12-12T05:09:21.954Z,1.40
2018-12-12T05:11:49.522Z,1.20
2018-12-12T05:14:17.115Z,1.20
2018-12-12T05:16:44.671Z,1.20
2018-12-12T05:19:12.403Z,1.20
2018-12-12T05:21:39.962Z,1.10
2018-12-12T05:24:07.630Z,1.30
2018-12-12T05:26:35.187Z,1.20
2018-12-12T05:29:02.788Z,1.20
2018-12-12T05:31:30.359Z,1.20
2018-12-12T05:33:57.975Z,1.30
2018-12-12T05:36:25.540Z,1.30
2018-12-12T05:38:54.305Z,1.30
2018-12-12T05:41:21.875Z,1.30
2018-12-12T05:43:49.474Z,1.30
2018-12-12T05:46:17.075Z,1.30
2018-12-12T05:48:44.639Z,1.20
2018-12-12T05:51:12.940Z,1.20
2018-12-12T05:53:40.508Z,1.30
2018-12-12T05:56:13.934Z,1.30
2018-12-12T05:58:37.750Z,1.30
2018-12-12T06:01:05.356Z,1.10
2018-12-12T06:03:33.769Z,1.10
2018-12-12T06:06:01.551Z,1.20
2018-12-12T06:08:29.213Z,1.10
2018-12-12T06:10:56.806Z,1.10
2018-12-12T06:13:24.370Z,1.00
2018-12-12T06:15:51.975Z,1.10
2018-12-12T06:18:19.643Z,1.20
2018-12-12T06:20:47.279Z,1.20
2018-12-12T06:23:14.851Z,1.10
2018-12-12T06:25:42.482Z,1.00
2018-12-12T06:28:10.089Z,1.10
2018-12-12T06:30:37.654Z,0.90
2018-12-12T06:33:05.243Z,1.20
2018-12-12T06:35:32.821Z,1.10
2018-12-12T06:38:00.423Z,1.00
2018-12-12T06:40:27.986Z,1.20
2018-12-12T06:42:56.271Z,1.10
2018-12-12T06:45:23.847Z,0.90
2018-12-12T06:47:51.442Z,1.10
2018-12-12T06:50:19.023Z,1.00
2018-12-12T06:52:46.625Z,1.10
2018-12-12T06:55:14.187Z,1.00
2018-12-12T06:57:41.778Z,1.00
2018-12-12T07:00:09.371Z,1.00
2018-12-12T07:02:36.962Z,1.00
2018-12-12T07:05:05.659Z,1.20
2018-12-12T07:07:33.562Z,1.20
2018-12-12T07:10:01.130Z,1.30
2018-12-12T07:12:28.719Z,1.40
2018-12-12T07:14:56.283Z,1.40
2018-12-12T07:17:23.874Z,1.40
2018-12-12T07:19:51.478Z,1.40
2018-12-12T07:22:19.147Z,1.30
2018-12-12T07:24:46.754Z,1.30
2018-12-12T07:27:14.331Z,1.30
2018-12-12T07:29:41.930Z,1.50
2018-12-12T07:32:10.215Z,1.40
2018-12-12T07:34:37.823Z,1.30
2018-12-12T07:37:05.390Z,1.40
2018-12-12T07:39:33.105Z,1.60
2018-12-12T07:42:00.671Z,1.70
2018-12-12T07:44:28.877Z,1.50
2018-12-12T07:46:56.867Z,1.40
2018-12-12T07:49:24.771Z,1.30
2018-12-12T07:51:52.329Z,1.50
2018-12-12T07:54:21.315Z,1.50
2018-12-12T07:56:48.887Z,1.30
2018-12-12T07:59:16.460Z,1.30
2018-12-12T08:01:44.058Z,1.30
2018-12-12T08:04:11.629Z,1.10
2018-12-12T08:06:39.230Z,1.20
2018-12-12T08:09:07.027Z,1.00
2018-12-12T08:11:34.624Z,1.10
2018-12-12T08:14:02.197Z,1.10
2018-12-12T08:16:29.804Z,1.20
2018-12-12T08:18:57.380Z,1.40
2018-12-12T08:21:24.974Z,1.30
2018-12-12T08:23:52.543Z,1.50
2018-12-12T08:26:20.147Z,1.50
2018-12-12T08:28:47.709Z,1.70
2018-12-12T08:31:15.303Z,1.60
2018-12-12T08:33:42.899Z,1.70
2018-12-12T08:36:10.503Z,1.50
2018-12-12T08:38:38.071Z,1.60
2018-12-12T08:41:05.664Z,1.50
2018-12-12T08:43:33.313Z,1.60
2018-12-12T08:46:00.979Z,1.60
2018-12-12T08:48:28.547Z,1.50
2018-12-12T08:50:56.139Z,1.60
2018-12-12T08:53:23.702Z,1.60
2018-12-12T08:55:51.298Z,1.60
2018-12-12T08:58:18.874Z,1.60
2018-12-12T09:00:46.462Z,1.60
2018-12-12T09:03:17.621Z,1.90
2018-12-12T09:05:43.803Z,1.80
2018-12-12T09:08:11.408Z,1.80
2018-12-12T09:10:38.980Z,1.70
2018-12-12T09:13:06.571Z,1.80
2018-12-12T09:15:34.130Z,1.70
2018-12-12T09:18:01.735Z,1.70
2018-12-12T09:20:29.304Z,1.80
2018-12-12T09:22:57.647Z,1.90
2018-12-12T09:25:25.224Z,1.90
2018-12-12T09:27:52.817Z,1.90
2018-12-12T09:30:20.392Z,2.00
2018-12-12T09:32:48.078Z,2.00
2018-12-12T09:35:15.675Z,1.80
2018-12-12T09:37:43.298Z,1.80
2018-12-12T09:40:10.864Z,2.00
2018-12-12T09:42:38.467Z,2.10
2018-12-12T09:45:06.077Z,2.30
2018-12-12T09:47:34.660Z,2.10
2018-12-12T09:50:02.339Z,2.20
2018-12-12T09:52:31.212Z,2.20
2018-12-12T09:54:58.949Z,2.20
2018-12-12T09:57:26.638Z,2.20
2018-12-12T09:59:54.823Z,2.30
2018-12-12T10:02:22.407Z,2.30
2018-12-12T10:04:50.011Z,2.30
2018-12-12T10:07:17.690Z,2.30
2018-12-12T10:09:45.331Z,2.40
2018-12-12T10:12:12.934Z,2.40
2018-12-12T10:14:41.489Z,2.30
2018-12-12T10:17:09.090Z,2.40
2018-12-12T10:19:36.653Z,2.30
2018-12-12T10:22:04.551Z,2.30
2018-12-12T10:24:33.810Z,2.30
2018-12-12T10:27:01.376Z,2.40
2018-12-12T10:29:28.998Z,2.20
2018-12-12T10:31:56.608Z,2.40
2018-12-12T10:34:24.296Z,2.40
2018-12-12T10:36:51.859Z,2.40
2018-12-12T10:39:19.542Z,2.30
2018-12-12T10:41:47.104Z,2.20
2018-12-12T10:44:14.763Z,2.00
2018-12-12T10:46:42.327Z,2.00
2018-12-12T10:49:09.930Z,1.90
2018-12-12T10:51:37.499Z,1.80
2018-12-12T10:54:05.099Z,1.90
2018-12-12T10:56:32.680Z,2.00
2018-12-12T10:59:00.276Z,1.90
2018-12-12T11:01:29.875Z,2.00
2018-12-12T11:03:57.978Z,2.20
2018-12-12T11:06:25.579Z,2.10
2018-12-12T11:08:53.146Z,2.00
2018-12-12T11:11:20.740Z,2.10
2018-12-12T11:13:48.307Z,2.30
2018-12-12T11:16:15.899Z,2.30
2018-12-12T11:18:43.558Z,2.10
2018-12-12T11:21:11.155Z,2.10
2018-12-12T11:23:38.726Z,2.30
2018-12-12T11:26:06.323Z,2.30
2018-12-12T11:28:33.892Z,2.40
2018-12-12T11:31:01.490Z,2.40
2018-12-12T11:33:29.060Z,2.40
2018-12-12T11:35:56.660Z,2.10
2018-12-12T11:38:24.255Z,2.00
2018-12-12T11:40:51.823Z,2.00
2018-12-12T11:43:19.865Z,1.90
2018-12-12T11:45:47.426Z,2.10
2018-12-12T11:48:15.237Z,2.20
2018-12-12T11:50:42.814Z,2.20
2018-12-12T11:53:12.196Z,2.50
2018-12-12T11:55:39.758Z,2.30
2018-12-12T11:58:07.343Z,2.50
2018-12-12T12:00:37.536Z,2.30
2018-12-12T12:03:05.127Z,2.30
2018-12-12T12:05:32.810Z,2.30
2018-12-12T12:08:00.435Z,2.40
2018-12-12T12:10:28.118Z,2.50
2018-12-12T12:12:55.706Z,2.60
2018-12-12T12:15:23.266Z,2.70
2018-12-12T12:17:50.862Z,2.70
2018-12-12T12:20:18.440Z,2.50
2018-12-12T12:22:46.555Z,2.40
2018-12-12T12:25:14.155Z,2.70
2018-12-12T12:27:41.715Z,2.70
2018-12-12T12:30:09.310Z,2.70
2018-12-12T12:32:37.535Z,2.50
2018-12-12T12:35:05.320Z,2.80
2018-12-12T12:37:32.883Z,2.30
2018-12-12T12:40:00.485Z,2.20
2018-12-12T12:42:28.047Z,2.30
2018-12-12T12:44:55.651Z,2.40
2018-12-12T12:47:23.218Z,2.60
2018-12-12T12:49:50.803Z,2.60
2018-12-12T12:52:18.482Z,2.50
2018-12-12T12:54:46.079Z,2.50
2018-12-12T12:57:13.644Z,2.40
2018-12-12T12:59:41.227Z,2.50
2018-12-12T13:02:08.798Z,2.60
2018-12-12T13:04:36.402Z,2.80
2018-12-12T13:07:03.990Z,2.80
2018-12-12T13:09:31.583Z,2.50
2018-12-12T13:11:59.208Z,2.40
2018-12-12T13:14:27.085Z,2.10
2018-12-12T13:16:54.671Z,2.30
2018-12-12T13:19:22.235Z,2.50
2018-12-12T13:21:49.828Z,2.60
2018-12-12T13:24:17.391Z,2.60
2018-12-12T13:26:45.664Z,2.60
2018-12-12T13:29:13.286Z,2.80
2018-12-12T13:31:40.882Z,2.60
2018-12-12T13:34:08.451Z,2.40
2018-12-12T13:36:36.051Z,2.50
2018-12-12T13:39:06.538Z,2.60
2018-12-12T13:41:34.130Z,2.70
2018-12-12T13:44:01.706Z,2.90
2018-12-12T13:46:29.423Z,2.80
2018-12-12T13:48:56.982Z,2.70
2018-12-12T13:51:24.573Z,2.90
2018-12-12T13:53:52.159Z,3.00
2018-12-12T13:56:19.748Z,3.10
2018-12-12T13:58:47.338Z,2.70
2018-12-12T14:01:14.894Z,2.80
2018-12-12T14:03:42.491Z,2.90
2018-12-12T14:06:10.166Z,3.00
2018-12-12T14:08:37.763Z,3.10
2018-12-12T14:11:05.334Z,3.00
2018-12-12T14:13:32.939Z,2.90
2018-12-12T14:16:00.508Z,2.80
2018-12-12T14:18:28.098Z,2.80
2018-12-12T14:20:55.659Z,2.80
2018-12-12T14:23:23.258Z,2.90
2018-12-12T14:25:50.841Z,3.10
2018-12-12T14:28:18.426Z,3.10
2018-12-12T14:30:46.063Z,3.10
2018-12-12T14:33:13.681Z,2.70
2018-12-12T14:35:41.246Z,2.80
2018-12-12T14:38:08.847Z,2.80
2018-12-12T14:40:36.442Z,2.80
2018-12-12T14:43:04.035Z,2.80
2018-12-12T14:45:31.650Z,2.90
2018-12-12T14:47:59.214Z,2.70
2018-12-12T14:50:26.819Z,2.50
2018-12-12T14:52:54.394Z,2.50
2018-12-12T14:55:22.393Z,2.40
2018-12-12T14:57:49.957Z,2.60
2018-12-12T15:00:17.554Z,2.70
2018-12-12T15:02:46.172Z,2.70
2018-12-12T15:05:13.881Z,2.60
2018-12-12T15:07:42.215Z,2.60
2018-12-12T15:10:09.807Z,2.60
2018-12-12T15:12:37.372Z,2.60
2018-12-12T15:15:05.388Z,2.60
2018-12-12T15:17:32.947Z,2.60
2018-12-12T15:20:00.547Z,2.70
2018-12-12T15:22:28.418Z,2.60
2018-12-12T15:24:55.983Z,2.60
2018-12-12T15:27:23.566Z,2.70
2018-12-12T15:29:51.127Z,2.70
2018-12-12T15:32:18.727Z,2.60
2018-12-12T15:34:46.385Z,2.60
2018-12-12T15:37:13.979Z,2.60
2018-12-12T15:39:41.535Z,2.40
2018-12-12T15:42:09.136Z,2.40
2018-12-12T15:44:36.711Z,2.30
2018-12-12T15:47:04.392Z,2.40
2018-12-12T15:49:32.466Z,2.50
2018-12-12T15:52:00.055Z,2.60
2018-12-12T15:54:28.655Z,2.50
2018-12-12T15:56:56.247Z,2.50
2018-12-12T15:59:23.921Z,2.30
2018-12-12T16:01:51.515Z,2.40
2018-12-12T16:04:19.084Z,2.40
2018-12-12T16:06:46.674Z,2.40
2018-12-12T16:09:14.263Z,2.50
2018-12-12T16:11:41.839Z,2.40
2018-12-12T16:14:09.439Z,2.30
2018-12-12T16:16:36.999Z,2.40
2018-12-12T16:19:04.592Z,2.30
2018-12-12T16:21:32.268Z,2.20
2018-12-12T16:24:01.079Z,2.30
2018-12-12T16:26:28.643Z,2.20
2018-12-12T16:28:56.235Z,2.20
2018-12-12T16:31:23.801Z,2.10
2018-12-12T16:33:51.394Z,2.20
2018-12-12T16:36:19.030Z,2.20
2018-12-12T16:38:46.813Z,2.20
2018-12-12T16:41:14.471Z,2.40
2018-12-12T16:43:42.076Z,2.40
2018-12-12T16:46:09.643Z,2.50
2018-12-12T16:48:37.234Z,2.40
2018-12-12T16:51:04.805Z,2.50
2018-12-12T16:53:32.391Z,2.50
2018-12-12T16:55:59.957Z,2.50
2018-12-12T16:58:27.515Z,2.30
2018-12-12T17:00:55.208Z,2.30
2018-12-12T17:03:22.779Z,2.30
2018-12-12T17:05:50.471Z,2.30
2018-12-12T17:08:18.035Z,2.30
2018-12-12T17:10:45.738Z,2.20
2018-12-12T17:13:13.347Z,2.30
2018-12-12T17:15:40.942Z,2.30
2018-12-12T17:18:08.519Z,2.40
2018-12-12T17:20:36.118Z,2.50
2018-12-12T17:23:03.689Z,2.50
2018-12-12T17:25:31.771Z,2.40
2018-12-12T17:27:59.487Z,2.50
2018-12-12T17:30:27.122Z,2.40
2018-12-12T17:32:54.693Z,2.30
2018-12-12T17:35:22.298Z,2.30
2018-12-12T17:37:50.402Z,2.30
2018-12-12T17:40:17.980Z,2.30
2018-12-12T17:42:45.575Z,2.30
2018-12-12T17:45:13.258Z,2.30
2018-12-12T17:47:41.842Z,2.40
2018-12-12T17:50:09.412Z,2.40
2018-12-12T17:52:38.392Z,2.30
2018-12-12T17:55:06.102Z,2.30
2018-12-12T17:57:34.279Z,2.20
2018-12-12T18:00:01.974Z,2.20
2018-12-12T18:02:29.571Z,2.30
2018-12-12T18:04:57.127Z,2.40
2018-12-12T18:07:24.710Z,2.40
2018-12-12T18:09:52.267Z,2.40
2018-12-12T18:12:19.867Z,2.50
2018-12-12T18:14:47.430Z,2.30
2018-12-12T18:17:15.048Z,2.40
2018-12-12T18:19:42.607Z,2.30
2018-12-12T18:22:10.198Z,2.30
2018-12-12T18:24:37.793Z,2.40
2018-12-12T18:27:05.395Z,2.40
2018-12-12T18:29:32.980Z,2.40
2018-12-12T18:32:00.551Z,2.40
2018-12-12T18:34:28.135Z,2.30
2018-12-12T18:36:55.694Z,2.30
2018-12-12T18:39:23.291Z,2.30
2018-12-12T18:41:50.851Z,2.30
2018-12-12T18:44:18.457Z,2.20
2018-12-12T18:46:46.010Z,2.30
2018-12-12T18:49:13.603Z,2.40
2018-12-12T18:51:41.414Z,2.30
2018-12-12T18:54:09.013Z,2.30
2018-12-12T18:56:36.587Z,2.20
2018-12-12T18:59:04.284Z,2.20
2018-12-12T19:01:31.886Z,2.20
2018-12-12T19:04:19.611Z,2.20
2018-12-12T19:07:01.255Z,2.30
2018-12-12T19:09:29.290Z,2.30
2018-12-12T19:11:57.407Z,2.30
2018-12-12T19:14:24.990Z,2.20
2018-12-12T19:16:54.474Z,2.30
2018-12-12T19:19:26.790Z,2.30
2018-12-12T19:24:38.269Z,2.40
2018-12-12T19:27:09.721Z,2.40
2018-12-12T19:29:40.898Z,2.50
2018-12-12T19:32:11.565Z,2.30
2018-12-12T19:34:43.028Z,2.20
2018-12-12T19:37:14.401Z,2.20
2018-12-12T19:39:50.084Z,2.30
2018-12-12T19:42:20.981Z,2.20
2018-12-12T19:44:52.422Z,2.30
2018-12-12T19:47:20.015Z,2.30
2018-12-12T19:49:48.689Z,2.20
2018-12-12T19:52:20.755Z,2.20
2018-12-12T19:54:49.594Z,2.30
2018-12-12T19:57:20.875Z,2.30
2018-12-12T19:59:49.591Z,2.30
2018-12-12T20:02:18.994Z,2.20
2018-12-12T20:04:46.603Z,2.10
2018-12-12T20:07:15.427Z,2.10
2018-12-12T20:09:43.403Z,2.10
2018-12-12T20:12:11.365Z,2.00
2018-12-12T20:14:39.127Z,2.00
2018-12-12T20:17:08.047Z,1.90
2018-12-12T20:19:35.647Z,2.00
2018-12-12T20:22:04.191Z,2.10
2018-12-12T20:24:32.066Z,2.10
2018-12-12T20:26:59.824Z,2.10
2018-12-12T20:29:27.794Z,2.00
2018-12-12T20:31:55.624Z,2.00
2018-12-12T20:34:23.491Z,1.80
2018-12-12T20:36:51.255Z,1.80
2018-12-12T20:39:19.225Z,1.80
2018-12-12T20:41:47.089Z,1.80
2018-12-12T20:44:15.131Z,1.80
2018-12-12T20:46:42.691Z,1.80
2018-12-12T20:49:10.284Z,1.80
2018-12-12T20:51:37.842Z,1.80
2018-12-12T20:54:05.441Z,1.70
2018-12-12T20:56:33.004Z,1.70
2018-12-12T20:59:00.619Z,1.70
2018-12-12T21:01:28.179Z,1.60
2018-12-12T21:03:55.779Z,1.60
2018-12-12T21:06:23.380Z,1.70
2018-12-12T21:08:50.948Z,1.60
2018-12-12T21:11:18.538Z,1.60
2018-12-12T21:13:46.122Z,1.70
2018-12-12T21:16:13.727Z,1.60
2018-12-12T21:18:41.995Z,1.60
2018-12-12T21:21:09.599Z,1.40
2018-12-12T21:23:37.300Z,1.40
2018-12-12T21:26:05.316Z,1.40
2018-12-12T21:28:32.894Z,1.40
2018-12-12T21:31:00.498Z,1.40
2018-12-12T21:33:28.068Z,1.40
2018-12-12T21:36:00.866Z,1.30
2018-12-12T21:38:25.323Z,1.10
2018-12-12T21:40:52.913Z,1.20
2018-12-12T21:43:20.483Z,1.20
2018-12-12T21:45:48.071Z,1.10
2018-12-12T21:48:15.646Z,1.30
2018-12-12T21:50:43.247Z,1.30
2018-12-12T21:53:11.531Z,1.40
2018-12-12T21:55:40.090Z,1.50
2018-12-12T21:58:07.683Z,1.50
2018-12-12T22:00:35.252Z,1.50
2018-12-12T22:03:02.846Z,1.40
2018-12-12T22:05:30.566Z,1.40
2018-12-12T22:07:58.155Z,1.50
2018-12-12T22:10:25.722Z,1.50
2018-12-12T22:12:53.322Z,1.40
2018-12-12T22:15:20.901Z,1.40
2018-12-12T22:17:53.093Z,1.40
2018-12-12T22:20:23.328Z,1.40
2018-12-12T22:23:00.748Z,1.30
2018-12-12T22:25:30.620Z,1.30
2018-12-12T22:28:05.347Z,1.20
2018-12-12T22:33:12.817Z,1.20
2018-12-12T22:35:44.050Z,1.30
2018-12-12T22:38:17.361Z,1.30
2018-12-12T22:40:48.704Z,1.30
2018-12-12T22:43:19.124Z,1.30
2018-12-12T22:45:49.323Z,1.40
2018-12-12T22:48:20.695Z,1.50
2018-12-12T22:50:54.052Z,1.50
2018-12-12T22:53:24.479Z,1.40
2018-12-12T22:55:56.835Z,1.40
2018-12-12T22:58:27.210Z,1.40
2018-12-12T23:01:18.374Z,1.40
2018-12-12T23:03:53.120Z,1.50
2018-12-12T23:06:23.775Z,1.50
2018-12-12T23:11:40.418Z,1.50
2018-12-12T23:14:12.738Z,1.60
2018-12-12T23:16:43.946Z,1.50
2018-12-12T23:19:14.777Z,1.60
2018-12-12T23:21:46.262Z,1.50
2018-12-12T23:24:25.074Z,1.50
2018-12-12T23:26:52.998Z,1.50
2018-12-12T23:29:24.611Z,1.60
2018-12-12T23:31:52.210Z,1.60
2018-12-12T23:34:19.770Z,1.70
2018-12-12T23:36:47.362Z,1.60
2018-12-12T23:39:14.930Z,1.50
2018-12-12T23:41:42.527Z,1.50
2018-12-12T23:44:10.101Z,1.60
2018-12-12T23:46:37.695Z,1.60
2018-12-12T23:49:06.198Z,1.40
2018-12-12T23:51:33.799Z,1.40
2018-12-12T23:54:01.469Z,1.40
2018-12-12T23:56:29.062Z,1.40
2018-12-12T23:58:56.622Z,1.40
